sensor_id;sensor_type;location;lat;lon;timestamp;P1;durP1;ratioP1;P2;durP2;ratioP2
21266;SDS011;10791;53.108;18.326;2023-07-13T00:02:24;10.27;;;7.93;;
21266;SDS011;10791;53.108;18.326;2023-07-13T00:07:30;8.98;;;5.88;;
21266;SDS011;10791;53.108;18.326;2023-07-13T00:12:35;8.75;;;6.30;;
21266;SDS011;10791;53.108;18.326;2023-07-13T00:17:40;11.55;;;6.53;;
21266;SDS011;10791;53.108;18.326;2023-07-13T00:22:43;10.43;;;6.70;;
21266;SDS011;10791;53.108;18.326;2023-07-13T00:27:49;7.70;;;6.05;;
21266;SDS011;10791;53.108;18.326;2023-07-13T00:32:53;12.07;;;7.68;;
21266;SDS011;10791;53.108;18.326;2023-07-13T00:38:09;8.38;;;6.63;;
21266;SDS011;10791;53.108;18.326;2023-07-13T00:43:14;15.77;;;8.00;;
21266;SDS011;10791;53.108;18.326;2023-07-13T00:48:21;10.88;;;7.32;;
21266;SDS011;10791;53.108;18.326;2023-07-13T00:53:30;10.95;;;6.63;;
21266;SDS011;10791;53.108;18.326;2023-07-13T00:58:36;10.25;;;6.07;;
21266;SDS011;10791;53.108;18.326;2023-07-13T01:03:40;9.15;;;6.60;;
21266;SDS011;10791;53.108;18.326;2023-07-13T01:08:43;11.25;;;6.45;;
21266;SDS011;10791;53.108;18.326;2023-07-13T01:13:47;7.53;;;6.03;;
21266;SDS011;10791;53.108;18.326;2023-07-13T01:18:50;10.32;;;6.38;;
21266;SDS011;10791;53.108;18.326;2023-07-13T01:23:54;7.93;;;5.97;;
21266;SDS011;10791;53.108;18.326;2023-07-13T01:28:58;9.13;;;7.00;;
21266;SDS011;10791;53.108;18.326;2023-07-13T01:34:01;9.13;;;6.37;;
21266;SDS011;10791;53.108;18.326;2023-07-13T01:39:05;7.50;;;6.38;;
21266;SDS011;10791;53.108;18.326;2023-07-13T01:44:09;9.57;;;7.03;;
21266;SDS011;10791;53.108;18.326;2023-07-13T01:49:13;8.77;;;5.97;;
21266;SDS011;10791;53.108;18.326;2023-07-13T01:54:16;11.37;;;6.80;;
21266;SDS011;10791;53.108;18.326;2023-07-13T01:59:20;7.68;;;6.63;;
21266;SDS011;10791;53.108;18.326;2023-07-13T02:04:23;11.03;;;7.37;;
21266;SDS011;10791;53.108;18.326;2023-07-13T02:09:27;9.70;;;6.63;;
21266;SDS011;10791;53.108;18.326;2023-07-13T02:14:30;12.17;;;8.10;;
21266;SDS011;10791;53.108;18.326;2023-07-13T02:19:33;10.10;;;7.38;;
21266;SDS011;10791;53.108;18.326;2023-07-13T02:24:37;14.95;;;8.15;;
21266;SDS011;10791;53.108;18.326;2023-07-13T02:29:40;12.77;;;7.57;;
21266;SDS011;10791;53.108;18.326;2023-07-13T02:34:44;11.13;;;7.40;;
21266;SDS011;10791;53.108;18.326;2023-07-13T02:39:47;11.33;;;7.97;;
21266;SDS011;10791;53.108;18.326;2023-07-13T02:44:51;9.50;;;7.33;;
21266;SDS011;10791;53.108;18.326;2023-07-13T02:49:54;10.77;;;7.07;;
21266;SDS011;10791;53.108;18.326;2023-07-13T02:54:58;11.53;;;8.20;;
21266;SDS011;10791;53.108;18.326;2023-07-13T03:00:02;12.87;;;7.30;;
21266;SDS011;10791;53.108;18.326;2023-07-13T03:05:10;14.87;;;8.20;;
21266;SDS011;10791;53.108;18.326;2023-07-13T03:10:15;11.07;;;7.50;;
21266;SDS011;10791;53.108;18.326;2023-07-13T03:15:19;10.57;;;8.27;;
21266;SDS011;10791;53.108;18.326;2023-07-13T03:20:24;11.07;;;8.43;;
21266;SDS011;10791;53.108;18.326;2023-07-13T03:25:27;10.83;;;7.80;;
21266;SDS011;10791;53.108;18.326;2023-07-13T03:30:31;14.25;;;8.98;;
21266;SDS011;10791;53.108;18.326;2023-07-13T03:35:35;11.23;;;7.65;;
21266;SDS011;10791;53.108;18.326;2023-07-13T03:40:42;14.70;;;8.68;;
21266;SDS011;10791;53.108;18.326;2023-07-13T03:45:46;13.05;;;8.20;;
21266;SDS011;10791;53.108;18.326;2023-07-13T03:50:50;12.40;;;8.75;;
21266;SDS011;10791;53.108;18.326;2023-07-13T03:55:53;14.35;;;7.78;;
21266;SDS011;10791;53.108;18.326;2023-07-13T04:00:56;10.45;;;8.13;;
21266;SDS011;10791;53.108;18.326;2023-07-13T04:06:01;14.35;;;8.73;;
21266;SDS011;10791;53.108;18.326;2023-07-13T04:11:07;12.23;;;8.30;;
21266;SDS011;10791;53.108;18.326;2023-07-13T04:16:10;12.48;;;8.13;;
21266;SDS011;10791;53.108;18.326;2023-07-13T04:21:14;17.23;;;9.10;;
21266;SDS011;10791;53.108;18.326;2023-07-13T04:26:18;11.20;;;8.73;;
21266;SDS011;10791;53.108;18.326;2023-07-13T04:31:23;13.52;;;8.43;;
21266;SDS011;10791;53.108;18.326;2023-07-13T04:36:27;11.93;;;8.00;;
21266;SDS011;10791;53.108;18.326;2023-07-13T04:41:30;11.13;;;8.70;;
21266;SDS011;10791;53.108;18.326;2023-07-13T04:46:34;15.02;;;8.60;;
21266;SDS011;10791;53.108;18.326;2023-07-13T04:51:37;12.70;;;8.80;;
21266;SDS011;10791;53.108;18.326;2023-07-13T04:56:40;15.32;;;9.68;;
21266;SDS011;10791;53.108;18.326;2023-07-13T05:01:43;11.20;;;8.13;;
21266;SDS011;10791;53.108;18.326;2023-07-13T05:06:47;13.55;;;9.32;;
21266;SDS011;10791;53.108;18.326;2023-07-13T05:11:50;10.00;;;8.18;;
21266;SDS011;10791;53.108;18.326;2023-07-13T05:16:54;13.07;;;8.65;;
21266;SDS011;10791;53.108;18.326;2023-07-13T05:21:59;10.65;;;6.60;;
21266;SDS011;10791;53.108;18.326;2023-07-13T05:27:03;9.20;;;5.80;;
21266;SDS011;10791;53.108;18.326;2023-07-13T05:32:07;9.02;;;5.90;;
21266;SDS011;10791;53.108;18.326;2023-07-13T05:37:10;8.15;;;5.18;;
21266;SDS011;10791;53.108;18.326;2023-07-13T05:42:14;7.63;;;5.63;;
21266;SDS011;10791;53.108;18.326;2023-07-13T05:47:17;7.57;;;4.35;;
21266;SDS011;10791;53.108;18.326;2023-07-13T05:52:21;5.78;;;4.13;;
21266;SDS011;10791;53.108;18.326;2023-07-13T05:57:24;10.85;;;4.13;;
21266;SDS011;10791;53.108;18.326;2023-07-13T06:02:27;6.30;;;4.70;;
21266;SDS011;10791;53.108;18.326;2023-07-13T06:07:31;6.80;;;3.75;;
21266;SDS011;10791;53.108;18.326;2023-07-13T06:12:34;10.38;;;4.18;;
21266;SDS011;10791;53.108;18.326;2023-07-13T06:17:38;6.50;;;3.33;;
21266;SDS011;10791;53.108;18.326;2023-07-13T06:22:41;4.93;;;3.33;;
21266;SDS011;10791;53.108;18.326;2023-07-13T06:27:45;8.65;;;3.10;;
21266;SDS011;10791;53.108;18.326;2023-07-13T06:32:48;4.43;;;2.63;;
21266;SDS011;10791;53.108;18.326;2023-07-13T06:37:52;6.88;;;3.03;;
21266;SDS011;10791;53.108;18.326;2023-07-13T06:42:56;5.35;;;2.60;;
21266;SDS011;10791;53.108;18.326;2023-07-13T06:48:00;7.35;;;3.05;;
21266;SDS011;10791;53.108;18.326;2023-07-13T06:53:03;9.65;;;3.00;;
21266;SDS011;10791;53.108;18.326;2023-07-13T06:58:07;7.93;;;2.60;;
21266;SDS011;10791;53.108;18.326;2023-07-13T07:03:10;5.25;;;2.70;;
21266;SDS011;10791;53.108;18.326;2023-07-13T07:08:14;7.97;;;2.88;;
21266;SDS011;10791;53.108;18.326;2023-07-13T07:13:17;4.25;;;2.35;;
21266;SDS011;10791;53.108;18.326;2023-07-13T07:18:21;5.20;;;2.00;;
21266;SDS011;10791;53.108;18.326;2023-07-13T07:23:24;9.45;;;2.80;;
21266;SDS011;10791;53.108;18.326;2023-07-13T07:28:27;5.13;;;2.60;;
21266;SDS011;10791;53.108;18.326;2023-07-13T07:33:44;10.68;;;3.08;;
21266;SDS011;10791;53.108;18.326;2023-07-13T07:38:47;6.68;;;2.83;;
21266;SDS011;10791;53.108;18.326;2023-07-13T07:43:51;5.25;;;2.72;;
21266;SDS011;10791;53.108;18.326;2023-07-13T07:48:55;6.30;;;2.55;;
21266;SDS011;10791;53.108;18.326;2023-07-13T07:53:58;6.60;;;3.10;;
21266;SDS011;10791;53.108;18.326;2023-07-13T07:59:02;6.30;;;2.20;;
21266;SDS011;10791;53.108;18.326;2023-07-13T08:04:08;4.38;;;2.00;;
21266;SDS011;10791;53.108;18.326;2023-07-13T08:09:32;3.05;;;1.88;;
21266;SDS011;10791;53.108;18.326;2023-07-13T08:14:35;5.97;;;2.03;;
21266;SDS011;10791;53.108;18.326;2023-07-13T08:19:54;4.38;;;1.80;;
21266;SDS011;10791;53.108;18.326;2023-07-13T08:24:58;3.80;;;2.03;;
21266;SDS011;10791;53.108;18.326;2023-07-13T08:30:03;3.25;;;1.83;;
21266;SDS011;10791;53.108;18.326;2023-07-13T08:35:08;5.32;;;2.40;;
21266;SDS011;10791;53.108;18.326;2023-07-13T08:40:12;6.13;;;2.10;;
21266;SDS011;10791;53.108;18.326;2023-07-13T08:50:56;4.57;;;2.38;;
21266;SDS011;10791;53.108;18.326;2023-07-13T08:56:11;3.17;;;2.08;;
21266;SDS011;10791;53.108;18.326;2023-07-13T09:06:29;4.45;;;2.13;;
21266;SDS011;10791;53.108;18.326;2023-07-13T09:17:24;6.85;;;2.40;;
21266;SDS011;10791;53.108;18.326;2023-07-13T09:22:35;3.97;;;1.63;;
21266;SDS011;10791;53.108;18.326;2023-07-13T09:27:43;4.85;;;2.33;;
21266;SDS011;10791;53.108;18.326;2023-07-13T09:32:50;3.97;;;2.25;;
21266;SDS011;10791;53.108;18.326;2023-07-13T09:38:01;5.85;;;2.47;;
21266;SDS011;10791;53.108;18.326;2023-07-13T09:43:16;4.78;;;2.63;;
21266;SDS011;10791;53.108;18.326;2023-07-13T09:48:21;5.18;;;1.50;;
21266;SDS011;10791;53.108;18.326;2023-07-13T09:53:24;9.40;;;2.25;;
21266;SDS011;10791;53.108;18.326;2023-07-13T09:58:35;5.97;;;2.33;;
21266;SDS011;10791;53.108;18.326;2023-07-13T10:03:38;4.15;;;2.60;;
21266;SDS011;10791;53.108;18.326;2023-07-13T10:08:55;5.35;;;3.20;;
21266;SDS011;10791;53.108;18.326;2023-07-13T10:14:00;8.13;;;2.85;;
21266;SDS011;10791;53.108;18.326;2023-07-13T10:19:18;5.55;;;2.70;;
21266;SDS011;10791;53.108;18.326;2023-07-13T10:24:29;6.72;;;3.35;;
21266;SDS011;10791;53.108;18.326;2023-07-13T10:35:04;8.13;;;2.83;;
21266;SDS011;10791;53.108;18.326;2023-07-13T10:40:14;4.78;;;2.38;;
21266;SDS011;10791;53.108;18.326;2023-07-13T11:20:19;5.65;;;3.55;;
21266;SDS011;10791;53.108;18.326;2023-07-13T11:25:30;5.25;;;3.08;;
21266;SDS011;10791;53.108;18.326;2023-07-13T11:30:49;6.63;;;3.53;;
21266;SDS011;10791;53.108;18.326;2023-07-13T11:36:20;7.18;;;4.80;;
21266;SDS011;10791;53.108;18.326;2023-07-13T11:47:14;5.35;;;2.80;;
21266;SDS011;10791;53.108;18.326;2023-07-13T11:52:24;4.97;;;2.60;;
21266;SDS011;10791;53.108;18.326;2023-07-13T11:57:36;4.07;;;2.17;;
21266;SDS011;10791;53.108;18.326;2023-07-13T12:02:45;4.65;;;2.70;;
21266;SDS011;10791;53.108;18.326;2023-07-13T12:07:52;3.53;;;2.45;;
21266;SDS011;10791;53.108;18.326;2023-07-13T12:13:02;4.90;;;2.78;;
21266;SDS011;10791;53.108;18.326;2023-07-13T12:18:20;3.72;;;2.67;;
21266;SDS011;10791;53.108;18.326;2023-07-13T12:23:32;5.20;;;3.05;;
21266;SDS011;10791;53.108;18.326;2023-07-13T12:28:49;9.10;;;3.00;;
21266;SDS011;10791;53.108;18.326;2023-07-13T12:34:01;4.22;;;2.72;;
21266;SDS011;10791;53.108;18.326;2023-07-13T12:39:19;3.58;;;2.58;;
21266;SDS011;10791;53.108;18.326;2023-07-13T12:44:43;4.53;;;2.20;;
21266;SDS011;10791;53.108;18.326;2023-07-13T12:49:49;3.20;;;2.10;;
21266;SDS011;10791;53.108;18.326;2023-07-13T12:54:57;3.15;;;2.05;;
21266;SDS011;10791;53.108;18.326;2023-07-13T13:00:22;3.95;;;1.88;;
21266;SDS011;10791;53.108;18.326;2023-07-13T13:05:31;2.95;;;2.28;;
21266;SDS011;10791;53.108;18.326;2023-07-13T13:10:37;7.82;;;3.75;;
21266;SDS011;10791;53.108;18.326;2023-07-13T13:15:41;5.78;;;2.92;;
21266;SDS011;10791;53.108;18.326;2023-07-13T13:20:45;14.23;;;5.80;;
21266;SDS011;10791;53.108;18.326;2023-07-13T13:25:50;4.22;;;1.83;;
21266;SDS011;10791;53.108;18.326;2023-07-13T13:31:01;6.40;;;2.72;;
21266;SDS011;10791;53.108;18.326;2023-07-13T13:36:04;6.05;;;2.80;;
21266;SDS011;10791;53.108;18.326;2023-07-13T13:41:26;7.15;;;2.80;;
21266;SDS011;10791;53.108;18.326;2023-07-13T13:46:30;5.95;;;3.28;;
21266;SDS011;10791;53.108;18.326;2023-07-13T13:51:39;7.35;;;3.00;;
21266;SDS011;10791;53.108;18.326;2023-07-13T13:56:43;5.30;;;3.75;;
21266;SDS011;10791;53.108;18.326;2023-07-13T14:01:49;5.38;;;3.40;;
21266;SDS011;10791;53.108;18.326;2023-07-13T14:06:54;9.13;;;3.65;;
21266;SDS011;10791;53.108;18.326;2023-07-13T14:11:59;5.68;;;3.50;;
21266;SDS011;10791;53.108;18.326;2023-07-13T14:17:03;4.90;;;3.25;;
21266;SDS011;10791;53.108;18.326;2023-07-13T14:22:07;5.15;;;3.53;;
21266;SDS011;10791;53.108;18.326;2023-07-13T14:27:11;5.10;;;2.92;;
21266;SDS011;10791;53.108;18.326;2023-07-13T14:32:15;4.55;;;3.47;;
21266;SDS011;10791;53.108;18.326;2023-07-13T14:37:19;3.83;;;3.10;;
21266;SDS011;10791;53.108;18.326;2023-07-13T14:42:22;2.88;;;2.33;;
21266;SDS011;10791;53.108;18.326;2023-07-13T14:47:26;5.43;;;2.75;;
21266;SDS011;10791;53.108;18.326;2023-07-13T14:52:30;5.22;;;2.30;;
21266;SDS011;10791;53.108;18.326;2023-07-13T15:01:40;4.85;;;2.67;;
21266;SDS011;10791;53.108;18.326;2023-07-13T15:06:52;4.93;;;2.60;;
21266;SDS011;10791;53.108;18.326;2023-07-13T15:12:01;7.22;;;2.80;;
21266;SDS011;10791;53.108;18.326;2023-07-13T15:22:58;4.63;;;2.15;;
21266;SDS011;10791;53.108;18.326;2023-07-13T15:28:25;3.22;;;2.22;;
21266;SDS011;10791;53.108;18.326;2023-07-13T15:33:29;4.78;;;1.95;;
21266;SDS011;10791;53.108;18.326;2023-07-13T15:38:33;5.55;;;1.98;;
21266;SDS011;10791;53.108;18.326;2023-07-13T15:43:41;3.78;;;1.90;;
21266;SDS011;10791;53.108;18.326;2023-07-13T15:48:45;3.25;;;2.03;;
21266;SDS011;10791;53.108;18.326;2023-07-13T15:53:49;3.25;;;1.95;;
21266;SDS011;10791;53.108;18.326;2023-07-13T15:58:53;3.20;;;2.10;;
21266;SDS011;10791;53.108;18.326;2023-07-13T16:03:59;3.35;;;1.92;;
21266;SDS011;10791;53.108;18.326;2023-07-13T16:09:03;3.13;;;2.00;;
21266;SDS011;10791;53.108;18.326;2023-07-13T16:14:09;3.85;;;2.33;;
21266;SDS011;10791;53.108;18.326;2023-07-13T16:19:17;3.53;;;2.30;;
21266;SDS011;10791;53.108;18.326;2023-07-13T16:24:22;2.97;;;1.77;;
21266;SDS011;10791;53.108;18.326;2023-07-13T16:29:28;4.10;;;1.95;;
21266;SDS011;10791;53.108;18.326;2023-07-13T16:34:34;3.22;;;1.98;;
21266;SDS011;10791;53.108;18.326;2023-07-13T16:39:39;3.13;;;2.25;;
21266;SDS011;10791;53.108;18.326;2023-07-13T16:44:51;3.13;;;1.80;;
21266;SDS011;10791;53.108;18.326;2023-07-13T16:49:56;4.18;;;1.98;;
21266;SDS011;10791;53.108;18.326;2023-07-13T16:55:01;2.63;;;1.65;;
21266;SDS011;10791;53.108;18.326;2023-07-13T17:00:08;6.13;;;2.17;;
21266;SDS011;10791;53.108;18.326;2023-07-13T17:05:35;3.40;;;1.80;;
21266;SDS011;10791;53.108;18.326;2023-07-13T17:10:46;3.33;;;1.90;;
21266;SDS011;10791;53.108;18.326;2023-07-13T17:15:58;3.53;;;2.05;;
21266;SDS011;10791;53.108;18.326;2023-07-13T17:21:09;6.78;;;1.70;;
21266;SDS011;10791;53.108;18.326;2023-07-13T17:26:16;2.78;;;1.17;;
21266;SDS011;10791;53.108;18.326;2023-07-13T17:31:21;1.70;;;0.77;;
21266;SDS011;10791;53.108;18.326;2023-07-13T17:36:25;1.98;;;1.02;;
21266;SDS011;10791;53.108;18.326;2023-07-13T17:41:28;3.25;;;1.13;;
21266;SDS011;10791;53.108;18.326;2023-07-13T17:46:32;1.95;;;1.23;;
21266;SDS011;10791;53.108;18.326;2023-07-13T17:51:37;1.80;;;1.00;;
21266;SDS011;10791;53.108;18.326;2023-07-13T17:56:42;3.28;;;1.27;;
21266;SDS011;10791;53.108;18.326;2023-07-13T18:01:46;4.10;;;1.67;;
21266;SDS011;10791;53.108;18.326;2023-07-13T18:06:51;2.60;;;1.10;;
21266;SDS011;10791;53.108;18.326;2023-07-13T18:11:57;4.25;;;1.50;;
21266;SDS011;10791;53.108;18.326;2023-07-13T18:17:02;3.45;;;1.05;;
21266;SDS011;10791;53.108;18.326;2023-07-13T18:25:37;1.55;;;1.10;;
21266;SDS011;10791;53.108;18.326;2023-07-13T18:30:42;2.92;;;1.77;;
21266;SDS011;10791;53.108;18.326;2023-07-13T18:35:48;4.13;;;1.55;;
21266;SDS011;10791;53.108;18.326;2023-07-13T18:40:54;2.10;;;1.30;;
21266;SDS011;10791;53.108;18.326;2023-07-13T18:46:00;1.98;;;1.40;;
21266;SDS011;10791;53.108;18.326;2023-07-13T18:51:12;3.60;;;1.27;;
21266;SDS011;10791;53.108;18.326;2023-07-13T18:56:16;3.42;;;1.77;;
21266;SDS011;10791;53.108;18.326;2023-07-13T19:01:30;2.22;;;1.50;;
21266;SDS011;10791;53.108;18.326;2023-07-13T19:06:38;2.55;;;1.50;;
21266;SDS011;10791;53.108;18.326;2023-07-13T19:11:42;2.22;;;1.55;;
21266;SDS011;10791;53.108;18.326;2023-07-13T19:16:46;10.82;;;1.83;;
21266;SDS011;10791;53.108;18.326;2023-07-13T19:21:50;6.82;;;1.48;;
21266;SDS011;10791;53.108;18.326;2023-07-13T19:26:59;3.92;;;1.83;;
21266;SDS011;10791;53.108;18.326;2023-07-13T19:32:03;3.00;;;1.90;;
21266;SDS011;10791;53.108;18.326;2023-07-13T19:37:22;5.25;;;1.83;;
21266;SDS011;10791;53.108;18.326;2023-07-13T19:42:27;6.82;;;2.20;;
21266;SDS011;10791;53.108;18.326;2023-07-13T19:47:33;2.97;;;1.67;;
21266;SDS011;10791;53.108;18.326;2023-07-13T19:52:38;3.28;;;2.00;;
21266;SDS011;10791;53.108;18.326;2023-07-13T19:57:47;5.85;;;2.13;;
21266;SDS011;10791;53.108;18.326;2023-07-13T20:02:59;4.90;;;2.17;;
21266;SDS011;10791;53.108;18.326;2023-07-13T20:08:05;6.18;;;2.30;;
21266;SDS011;10791;53.108;18.326;2023-07-13T20:13:21;29.65;;;3.75;;
21266;SDS011;10791;53.108;18.326;2023-07-13T20:18:29;54.90;;;6.82;;
21266;SDS011;10791;53.108;18.326;2023-07-13T20:23:33;32.88;;;5.20;;
21266;SDS011;10791;53.108;18.326;2023-07-13T20:28:37;22.92;;;3.83;;
21266;SDS011;10791;53.108;18.326;2023-07-13T20:33:44;17.40;;;3.78;;
21266;SDS011;10791;53.108;18.326;2023-07-13T20:38:47;7.25;;;2.92;;
21266;SDS011;10791;53.108;18.326;2023-07-13T20:43:52;7.72;;;2.70;;
21266;SDS011;10791;53.108;18.326;2023-07-13T20:48:55;6.63;;;2.45;;
21266;SDS011;10791;53.108;18.326;2023-07-13T20:53:59;3.17;;;2.55;;
21266;SDS011;10791;53.108;18.326;2023-07-13T20:59:03;3.72;;;2.88;;
21266;SDS011;10791;53.108;18.326;2023-07-13T21:04:08;4.50;;;2.72;;
21266;SDS011;10791;53.108;18.326;2023-07-13T21:09:18;3.25;;;2.17;;
21266;SDS011;10791;53.108;18.326;2023-07-13T21:14:24;4.50;;;2.85;;
21266;SDS011;10791;53.108;18.326;2023-07-13T21:19:29;5.72;;;2.45;;
21266;SDS011;10791;53.108;18.326;2023-07-13T21:24:33;8.98;;;2.42;;
21266;SDS011;10791;53.108;18.326;2023-07-13T21:29:37;3.58;;;2.08;;
21266;SDS011;10791;53.108;18.326;2023-07-13T21:34:40;3.40;;;2.05;;
21266;SDS011;10791;53.108;18.326;2023-07-13T21:39:46;2.70;;;1.65;;
21266;SDS011;10791;53.108;18.326;2023-07-13T21:44:53;4.05;;;2.22;;
21266;SDS011;10791;53.108;18.326;2023-07-13T21:49:56;3.47;;;1.70;;
21266;SDS011;10791;53.108;18.326;2023-07-13T21:54:59;2.60;;;1.50;;
21266;SDS011;10791;53.108;18.326;2023-07-13T22:00:03;2.53;;;1.40;;
21266;SDS011;10791;53.108;18.326;2023-07-13T22:05:16;3.13;;;1.63;;
21266;SDS011;10791;53.108;18.326;2023-07-13T22:10:21;5.70;;;1.70;;
21266;SDS011;10791;53.108;18.326;2023-07-13T22:15:26;5.90;;;1.58;;
21266;SDS011;10791;53.108;18.326;2023-07-13T22:20:31;4.68;;;1.45;;
21266;SDS011;10791;53.108;18.326;2023-07-13T22:25:34;5.03;;;1.67;;
21266;SDS011;10791;53.108;18.326;2023-07-13T22:30:38;6.00;;;1.60;;
21266;SDS011;10791;53.108;18.326;2023-07-13T22:35:41;4.60;;;1.70;;
21266;SDS011;10791;53.108;18.326;2023-07-13T22:40:44;2.85;;;1.55;;
21266;SDS011;10791;53.108;18.326;2023-07-13T22:45:48;3.10;;;1.55;;
21266;SDS011;10791;53.108;18.326;2023-07-13T22:51:02;3.75;;;1.40;;
21266;SDS011;10791;53.108;18.326;2023-07-13T22:56:12;2.92;;;1.48;;
21266;SDS011;10791;53.108;18.326;2023-07-13T23:01:17;2.45;;;1.73;;
21266;SDS011;10791;53.108;18.326;2023-07-13T23:06:33;4.45;;;1.75;;
21266;SDS011;10791;53.108;18.326;2023-07-13T23:11:38;1.92;;;1.40;;
21266;SDS011;10791;53.108;18.326;2023-07-13T23:16:41;4.13;;;1.92;;
21266;SDS011;10791;53.108;18.326;2023-07-13T23:21:46;2.33;;;1.38;;
21266;SDS011;10791;53.108;18.326;2023-07-13T23:26:51;2.58;;;1.50;;
21266;SDS011;10791;53.108;18.326;2023-07-13T23:31:55;4.18;;;2.05;;
21266;SDS011;10791;53.108;18.326;2023-07-13T23:36:58;10.93;;;2.75;;
21266;SDS011;10791;53.108;18.326;2023-07-13T23:42:01;7.50;;;2.35;;
21266;SDS011;10791;53.108;18.326;2023-07-13T23:47:04;14.00;;;2.65;;
21266;SDS011;10791;53.108;18.326;2023-07-13T23:52:10;5.05;;;2.25;;
21266;SDS011;10791;53.108;18.326;2023-07-13T23:57:15;3.88;;;2.13;;
